Weather reports worldwide

Advertisment
Lecaroz, Spain (8030): temperature & dewpoint: 24.09.2020 23:00:00 - 30.09.2020 23:00:00 (CEST)Lecaroz, Spain (8030): wind speed & gusts: 24.09.2020 23:00:00 - 30.09.2020 23:00:00 (CEST)Lecaroz, Spain (8030): wind direction: 24.09.2020 23:00:00 - 30.09.2020 23:00:00 (CEST)Lecaroz, Spain (8030): precipitation: 24.09.2020 23:00:00 - 30.09.2020 23:00:00 (CEST)
Date & Time tt [°C] td [°C] ff [km/h] ff [kn] fx [km/h] fx [kn] dd rr [mm]
30.09.2020 23:00:00 - - - - - - - -
30.09.2020 22:00:00 - - - - - - - -
30.09.2020 21:00:00 - - - - - - - -
30.09.2020 20:00:00 16,3 10,4 1 1 8 5 E -
30.09.2020 19:00:00 19,1 11,1 2 1 16 9 ESE 0,0
30.09.2020 18:00:00 - - - - - - - -
30.09.2020 17:00:00 - - - - - - - -
30.09.2020 16:00:00 - - - - - - - -
30.09.2020 15:00:00 - - - - - - - -
30.09.2020 14:00:00 21,3 11,0 1 1 6 4 SSE -
30.09.2020 13:00:00 - - - - - - - -
30.09.2020 12:00:00 - - - - - - - -
30.09.2020 11:00:00 - - - - - - - -
30.09.2020 10:00:00 - - - - - - - -
30.09.2020 09:00:00 - - - - - - - -
30.09.2020 08:00:00 9,2 8,8 0 0 0 0 N -
30.09.2020 07:00:00 - - - - - - - -
30.09.2020 06:00:00 9,6 9,2 0 0 0 0 N 0,0
30.09.2020 05:00:00 - - - - - - - -
30.09.2020 04:00:00 9,9 9,4 0 0 0 0 N 0,0
30.09.2020 03:00:00 10,2 9,8 0 0 0 0 N 0,0
30.09.2020 02:00:00 10,5 10,0 0 0 0 0 N -
30.09.2020 01:00:00 10,3 9,7 0 0 0 0 N 0,0
30.09.2020 00:00:00 9,8 9,0 0 0 0 0 N 0,0
29.09.2020 23:00:00 - - - - - - - -
29.09.2020 22:00:00 - - - - - - - -
29.09.2020 21:00:00 12,8 11,0 0 0 0 0 N 0,0
29.09.2020 20:00:00 14,6 12,1 0 0 3 2 N -
29.09.2020 19:00:00 - - - - - - - -
29.09.2020 18:00:00 19,4 10,6 2 1 8 4 ENE 0,0
29.09.2020 17:00:00 - - - - - - - -
29.09.2020 16:00:00 - - - - - - - -
29.09.2020 15:00:00 17,4 10,5 0 0 5 3 N 0,0
29.09.2020 14:00:00 15,9 11,4 0 0 9 5 N -
29.09.2020 13:00:00 13,5 10,2 2 1 5 3 N 0,0
29.09.2020 12:00:00 - - - - - - - -
29.09.2020 11:00:00 9,4 8,9 1 1 6 4 NNW 0,0
29.09.2020 10:00:00 8,8 8,4 1 0 5 3 NNW 0,0
29.09.2020 09:00:00 8,6 8,1 1 0 5 3 S 0,0
29.09.2020 08:00:00 8,3 7,8 1 1 5 3 ENE -
29.09.2020 07:00:00 8,4 8,0 1 1 5 3 SW 0,0
29.09.2020 06:00:00 8,7 8,3 0 0 5 3 ESE 0,0
29.09.2020 05:00:00 8,7 8,3 1 0 3 2 NNE 0,0
29.09.2020 04:00:00 8,8 8,4 0 0 4 2 S 0,0
29.09.2020 03:00:00 8,8 8,4 0 0 0 0 N 0,0
29.09.2020 02:00:00 8,7 8,3 0 0 0 0 N -
29.09.2020 01:00:00 - - - - - - - -
29.09.2020 00:00:00 8,4 7,8 0 0 2 1 N 0,0
28.09.2020 23:00:00 8,8 7,8 0 0 0 0 N 0,0
28.09.2020 22:00:00 9,6 8,4 0 0 2 1 SSW 0,0
28.09.2020 21:00:00 - - - - - - - -
28.09.2020 20:00:00 12,9 10,0 1 0 4 2 ESE -
28.09.2020 19:00:00 - - - - - - - -
28.09.2020 18:00:00 - - - - - - - -
28.09.2020 17:00:00 15,8 9,2 1 1 17 9 ESE 0,0
28.09.2020 16:00:00 - - - - - - - -
28.09.2020 15:00:00 - - - - - - - -
28.09.2020 14:00:00 15,8 9,7 0 0 14 7 ESE -
28.09.2020 13:00:00 - - - - - - - -
28.09.2020 12:00:00 - - - - - - - -
28.09.2020 11:00:00 12,7 11,6 0 0 3 1 WSW 0,0
28.09.2020 10:00:00 11,7 11,1 1 1 3 2 SSW 0,0
28.09.2020 09:00:00 11,5 11,0 0 0 3 2 NW 0,0
28.09.2020 08:00:00 10,9 10,4 0 0 3 2 ENE -
28.09.2020 07:00:00 - - - - - - - -
28.09.2020 06:00:00 - - - - - - - -
28.09.2020 05:00:00 - - - - - - - -
28.09.2020 04:00:00 11,0 10,4 0 0 5 3 S 0,0
28.09.2020 03:00:00 - - - - - - - -
28.09.2020 02:00:00 11,4 10,6 1 0 2 1 NE -
28.09.2020 01:00:00 11,4 10,4 0 0 2 1 NE 0,1
28.09.2020 00:00:00 11,4 10,2 0 0 6 3 N 0,0
27.09.2020 23:00:00 11,4 10,2 1 0 14 7 NNW 0,0
27.09.2020 22:00:00 - - - - - - - -
27.09.2020 21:00:00 12,9 7,6 2 1 14 8 SW 0,0
27.09.2020 20:00:00 13,2 7,4 1 1 16 8 SSW -
27.09.2020 19:00:00 - - - - - - - -
27.09.2020 18:00:00 - - - - - - - -
27.09.2020 17:00:00 14,5 4,8 3 2 14 7 NW 0,0
27.09.2020 16:00:00 15,1 5,3 4 2 18 10 WNW 0,0
27.09.2020 15:00:00 - - - - - - - -
27.09.2020 14:00:00 14,4 4,6 7 4 17 9 N -
27.09.2020 13:00:00 14,9 7,4 3 2 15 8 WNW 0,0
27.09.2020 12:00:00 11,7 8,0 3 2 10 5 NNW 0,0
27.09.2020 11:00:00 - - - - - - - -
27.09.2020 10:00:00 - - - - - - - -
27.09.2020 09:00:00 7,6 7,3 1 1 6 3 NE 0,0
27.09.2020 08:00:00 7,7 7,3 0 0 0 0 N -
27.09.2020 07:00:00 - - - - - - - -
27.09.2020 06:00:00 7,6 7,1 0 0 3 1 NNW 0,0
27.09.2020 05:00:00 - - - - - - - -
27.09.2020 04:00:00 8,1 7,6 1 0 6 4 SSE 0,0
27.09.2020 03:00:00 - - - - - - - -
27.09.2020 02:00:00 9,5 7,8 2 1 16 9 S -
27.09.2020 01:00:00 10,8 7,3 7 4 20 11 NE 0,3
27.09.2020 00:00:00 10,9 9,2 1 1 24 13 ESE 0,4
26.09.2020 23:00:00 - - - - - - - -
26.09.2020 22:00:00 15,1 13,0 13 7 35 19 N 8,0
26.09.2020 21:00:00 13,8 13,4 1 1 6 3 ENE 2,9
26.09.2020 20:00:00 13,8 13,1 1 1 8 4 E -
26.09.2020 19:00:00 14,2 12,4 1 1 14 8 N 0,2
26.09.2020 18:00:00 - - - - - - - -
26.09.2020 17:00:00 14,4 12,4 1 1 14 8 NNW 0,0
26.09.2020 16:00:00 14,2 13,1 1 1 5 3 NE 0,5
26.09.2020 15:00:00 - - - - - - - -
26.09.2020 14:00:00 14,0 12,5 2 1 11 6 WSW -
26.09.2020 13:00:00 13,6 12,3 1 1 6 3 SSW 0,6
26.09.2020 12:00:00 13,1 12,3 2 1 10 6 SE 1,1
26.09.2020 11:00:00 - - - - - - - -
26.09.2020 10:00:00 - - - - - - - -
26.09.2020 09:00:00 11,0 10,5 0 0 9 5 NW 2,4
26.09.2020 08:00:00 10,7 10,3 1 1 11 6 NNW -
26.09.2020 07:00:00 10,5 10,0 2 1 8 5 SSW 3,0
26.09.2020 06:00:00 10,4 9,9 0 0 9 5 NNW 3,1
26.09.2020 05:00:00 10,3 9,8 2 1 13 7 NNW 2,7
26.09.2020 04:00:00 10,3 9,8 2 1 10 5 SSW 0,6
26.09.2020 03:00:00 10,1 9,7 4 2 8 5 SSW 4,5
26.09.2020 02:00:00 10,2 9,8 0 0 9 5 NNW -
26.09.2020 01:00:00 10,2 9,6 1 1 13 7 SSW 1,0
26.09.2020 00:00:00 10,2 9,6 3 1 13 7 SSW 2,1
25.09.2020 23:00:00 - - - - - - - -
25.09.2020 22:00:00 - - - - - - - -
25.09.2020 21:00:00 10,6 9,7 2 1 13 7 WSW 2,6
25.09.2020 20:00:00 10,7 9,3 3 2 19 10 SW -
25.09.2020 19:00:00 - - - - - - - -
25.09.2020 18:00:00 - - - - - - - -
25.09.2020 17:00:00 - - - - - - - -
25.09.2020 16:00:00 - - - - - - - -
25.09.2020 15:00:00 - - - - - - - -
25.09.2020 14:00:00 13,1 10,0 4 2 37 20 SW -
25.09.2020 13:00:00 - - - - - - - -
25.09.2020 12:00:00 - - - - - - - -
25.09.2020 11:00:00 10,8 9,0 1 1 13 7 NW 4,3
25.09.2020 10:00:00 10,3 9,7 2 1 11 6 SSE 1,9
25.09.2020 09:00:00 - - - - - - - -
25.09.2020 08:00:00 9,5 8,3 1 0 14 8 NNE -
25.09.2020 07:00:00 9,9 8,4 4 2 16 8 NNW 0,5
25.09.2020 06:00:00 - - - - - - - -
25.09.2020 05:00:00 10,6 9,7 4 2 15 8 NW 1,0
25.09.2020 04:00:00 - - - - - - - -
25.09.2020 03:00:00 - - - - - - - -
25.09.2020 02:00:00 12,2 10,3 2 1 16 9 SSW -
25.09.2020 01:00:00 13,3 11,3 3 1 18 10 NW 0,5
25.09.2020 00:00:00 13,8 12,5 5 3 18 10 NNW 3,1
24.09.2020 23:00:00 - - - - - - - -

tt = temperature
td = dewpoint
ff = wind speed
fx = gusts
dd = wind direction
rr = precipitation

Next stations